sensor_id;sensor_type;location;lat;lon;timestamp;temperature;humidity
42617;DHT22;28250;52.320;0.360;2022-08-19T00:01:38;19.50;99.90
42617;DHT22;28250;52.320;0.360;2022-08-19T00:04:07;19.50;99.90
42617;DHT22;28250;52.320;0.360;2022-08-19T00:06:36;19.50;99.90
42617;DHT22;28250;52.320;0.360;2022-08-19T00:09:04;19.50;99.90
42617;DHT22;28250;52.320;0.360;2022-08-19T00:11:32;19.40;99.90
42617;DHT22;28250;52.320;0.360;2022-08-19T00:14:00;19.40;99.90
42617;DHT22;28250;52.320;0.360;2022-08-19T00:16:26;19.40;99.90
42617;DHT22;28250;52.320;0.360;2022-08-19T00:18:53;19.40;99.90
42617;DHT22;28250;52.320;0.360;2022-08-19T00:21:21;19.50;99.90
42617;DHT22;28250;52.320;0.360;2022-08-19T00:23:48;19.50;99.90
42617;DHT22;28250;52.320;0.360;2022-08-19T00:26:15;19.50;99.90
42617;DHT22;28250;52.320;0.360;2022-08-19T00:28:41;19.50;99.90
42617;DHT22;28250;52.320;0.360;2022-08-19T00:31:08;19.60;99.90
42617;DHT22;28250;52.320;0.360;2022-08-19T00:33:35;19.60;99.90
42617;DHT22;28250;52.320;0.360;2022-08-19T00:36:03;19.70;99.90
42617;DHT22;28250;52.320;0.360;2022-08-19T00:38:34;19.70;99.90
42617;DHT22;28250;52.320;0.360;2022-08-19T00:41:01;19.70;99.90
42617;DHT22;28250;52.320;0.360;2022-08-19T00:43:27;19.80;99.90
42617;DHT22;28250;52.320;0.360;2022-08-19T00:45:54;19.80;99.90
42617;DHT22;28250;52.320;0.360;2022-08-19T00:48:21;19.80;99.90
42617;DHT22;28250;52.320;0.360;2022-08-19T00:50:49;19.90;99.90
42617;DHT22;28250;52.320;0.360;2022-08-19T00:53:18;20.00;99.90
42617;DHT22;28250;52.320;0.360;2022-08-19T00:55:46;19.90;99.90
42617;DHT22;28250;52.320;0.360;2022-08-19T00:58:15;19.90;99.90
42617;DHT22;28250;52.320;0.360;2022-08-19T01:00:43;19.90;99.90
42617;DHT22;28250;52.320;0.360;2022-08-19T01:03:12;19.80;99.90
42617;DHT22;28250;52.320;0.360;2022-08-19T01:05:44;19.80;99.90
42617;DHT22;28250;52.320;0.360;2022-08-19T01:08:12;19.80;99.90
42617;DHT22;28250;52.320;0.360;2022-08-19T01:10:41;19.70;99.90
42617;DHT22;28250;52.320;0.360;2022-08-19T01:13:11;19.70;99.90
42617;DHT22;28250;52.320;0.360;2022-08-19T01:15:42;19.70;99.90
42617;DHT22;28250;52.320;0.360;2022-08-19T01:18:13;19.70;99.90
42617;DHT22;28250;52.320;0.360;2022-08-19T01:20:41;19.60;99.90
42617;DHT22;28250;52.320;0.360;2022-08-19T01:23:09;19.70;99.90
42617;DHT22;28250;52.320;0.360;2022-08-19T01:25:40;19.60;99.90
42617;DHT22;28250;52.320;0.360;2022-08-19T01:28:14;19.60;99.90
42617;DHT22;28250;52.320;0.360;2022-08-19T01:30:46;19.60;99.90
42617;DHT22;28250;52.320;0.360;2022-08-19T01:33:13;19.70;99.90
42617;DHT22;28250;52.320;0.360;2022-08-19T01:35:40;19.70;99.90
42617;DHT22;28250;52.320;0.360;2022-08-19T01:38:08;19.70;99.90
42617;DHT22;28250;52.320;0.360;2022-08-19T01:40:37;19.80;99.90
42617;DHT22;28250;52.320;0.360;2022-08-19T01:43:05;19.80;99.90
42617;DHT22;28250;52.320;0.360;2022-08-19T01:45:33;19.80;99.90
42617;DHT22;28250;52.320;0.360;2022-08-19T01:48:00;19.70;99.90
42617;DHT22;28250;52.320;0.360;2022-08-19T01:50:27;19.80;99.90
42617;DHT22;28250;52.320;0.360;2022-08-19T01:52:55;19.80;99.90
42617;DHT22;28250;52.320;0.360;2022-08-19T01:55:22;19.80;99.90
42617;DHT22;28250;52.320;0.360;2022-08-19T01:57:52;19.80;99.90
42617;DHT22;28250;52.320;0.360;2022-08-19T02:00:23;19.70;99.90
42617;DHT22;28250;52.320;0.360;2022-08-19T02:02:51;19.70;99.90
42617;DHT22;28250;52.320;0.360;2022-08-19T02:05:17;19.70;99.90
42617;DHT22;28250;52.320;0.360;2022-08-19T02:07:44;19.70;99.90
42617;DHT22;28250;52.320;0.360;2022-08-19T02:10:12;19.80;99.90
42617;DHT22;28250;52.320;0.360;2022-08-19T02:12:41;19.80;99.90
42617;DHT22;28250;52.320;0.360;2022-08-19T02:15:08;19.70;99.90
42617;DHT22;28250;52.320;0.360;2022-08-19T02:17:35;19.70;99.90
42617;DHT22;28250;52.320;0.360;2022-08-19T02:20:01;19.70;99.90
42617;DHT22;28250;52.320;0.360;2022-08-19T02:22:28;19.70;99.90
42617;DHT22;28250;52.320;0.360;2022-08-19T02:24:55;19.60;99.90
42617;DHT22;28250;52.320;0.360;2022-08-19T02:27:21;19.60;99.90
42617;DHT22;28250;52.320;0.360;2022-08-19T02:29:48;19.60;99.90
42617;DHT22;28250;52.320;0.360;2022-08-19T02:32:16;19.70;99.90
42617;DHT22;28250;52.320;0.360;2022-08-19T02:34:45;19.70;99.90
42617;DHT22;28250;52.320;0.360;2022-08-19T02:37:13;19.60;99.90
42617;DHT22;28250;52.320;0.360;2022-08-19T02:40:02;19.60;99.90
42617;DHT22;28250;52.320;0.360;2022-08-19T02:42:29;19.50;99.90
42617;DHT22;28250;52.320;0.360;2022-08-19T02:44:55;19.40;99.90
42617;DHT22;28250;52.320;0.360;2022-08-19T02:47:22;19.40;99.90
42617;DHT22;28250;52.320;0.360;2022-08-19T02:49:48;19.20;99.90
42617;DHT22;28250;52.320;0.360;2022-08-19T02:52:16;19.20;99.90
42617;DHT22;28250;52.320;0.360;2022-08-19T02:54:42;19.20;99.90
42617;DHT22;28250;52.320;0.360;2022-08-19T02:57:09;19.20;99.90
42617;DHT22;28250;52.320;0.360;2022-08-19T02:59:36;19.10;99.90
42617;DHT22;28250;52.320;0.360;2022-08-19T03:02:02;19.10;99.90
42617;DHT22;28250;52.320;0.360;2022-08-19T03:04:29;19.10;99.90
42617;DHT22;28250;52.320;0.360;2022-08-19T03:06:55;19.20;99.90
42617;DHT22;28250;52.320;0.360;2022-08-19T03:09:22;19.20;99.90
42617;DHT22;28250;52.320;0.360;2022-08-19T03:11:49;19.20;99.90
42617;DHT22;28250;52.320;0.360;2022-08-19T03:14:15;19.20;99.90
42617;DHT22;28250;52.320;0.360;2022-08-19T03:16:45;19.10;99.90
42617;DHT22;28250;52.320;0.360;2022-08-19T03:19:15;19.20;99.90
42617;DHT22;28250;52.320;0.360;2022-08-19T03:21:42;19.20;99.90
42617;DHT22;28250;52.320;0.360;2022-08-19T03:24:10;19.10;99.90
42617;DHT22;28250;52.320;0.360;2022-08-19T03:26:39;19.10;99.90
42617;DHT22;28250;52.320;0.360;2022-08-19T03:29:07;19.20;99.90
42617;DHT22;28250;52.320;0.360;2022-08-19T03:31:35;19.10;99.90
42617;DHT22;28250;52.320;0.360;2022-08-19T03:34:02;19.10;99.90
42617;DHT22;28250;52.320;0.360;2022-08-19T03:36:29;19.10;99.90
42617;DHT22;28250;52.320;0.360;2022-08-19T03:38:56;19.10;99.90
42617;DHT22;28250;52.320;0.360;2022-08-19T03:41:27;19.10;99.90
42617;DHT22;28250;52.320;0.360;2022-08-19T03:43:55;19.10;99.90
42617;DHT22;28250;52.320;0.360;2022-08-19T03:46:24;19.10;99.90
42617;DHT22;28250;52.320;0.360;2022-08-19T03:48:52;19.10;99.90
42617;DHT22;28250;52.320;0.360;2022-08-19T03:51:26;19.10;99.90
42617;DHT22;28250;52.320;0.360;2022-08-19T03:53:57;19.10;99.90
42617;DHT22;28250;52.320;0.360;2022-08-19T03:56:26;19.10;99.90
42617;DHT22;28250;52.320;0.360;2022-08-19T03:58:54;19.10;99.90
42617;DHT22;28250;52.320;0.360;2022-08-19T04:01:23;19.10;99.90
42617;DHT22;28250;52.320;0.360;2022-08-19T04:03:52;19.10;99.90
42617;DHT22;28250;52.320;0.360;2022-08-19T04:06:20;19.10;99.90
42617;DHT22;28250;52.320;0.360;2022-08-19T04:08:49;19.10;99.90
42617;DHT22;28250;52.320;0.360;2022-08-19T04:11:18;19.10;99.90
42617;DHT22;28250;52.320;0.360;2022-08-19T04:13:47;19.10;99.90
42617;DHT22;28250;52.320;0.360;2022-08-19T04:16:15;19.00;99.90
42617;DHT22;28250;52.320;0.360;2022-08-19T04:18:41;19.10;99.90
42617;DHT22;28250;52.320;0.360;2022-08-19T04:21:08;19.20;99.90
42617;DHT22;28250;52.320;0.360;2022-08-19T04:23:44;19.10;99.90
42617;DHT22;28250;52.320;0.360;2022-08-19T04:26:15;19.10;99.90
42617;DHT22;28250;52.320;0.360;2022-08-19T04:28:43;19.10;99.90
42617;DHT22;28250;52.320;0.360;2022-08-19T04:31:15;19.10;99.90
42617;DHT22;28250;52.320;0.360;2022-08-19T04:33:44;19.10;99.90
42617;DHT22;28250;52.320;0.360;2022-08-19T04:36:16;19.10;99.90
42617;DHT22;28250;52.320;0.360;2022-08-19T04:38:47;19.10;99.90
42617;DHT22;28250;52.320;0.360;2022-08-19T04:41:15;19.00;99.90
42617;DHT22;28250;52.320;0.360;2022-08-19T04:44:00;19.00;99.90
42617;DHT22;28250;52.320;0.360;2022-08-19T04:46:28;19.00;99.90
42617;DHT22;28250;52.320;0.360;2022-08-19T04:48:58;19.00;99.90
42617;DHT22;28250;52.320;0.360;2022-08-19T04:51:25;19.00;99.90
42617;DHT22;28250;52.320;0.360;2022-08-19T04:53:52;18.90;99.90
42617;DHT22;28250;52.320;0.360;2022-08-19T04:56:19;18.90;99.90
42617;DHT22;28250;52.320;0.360;2022-08-19T04:58:46;19.00;99.90
42617;DHT22;28250;52.320;0.360;2022-08-19T05:01:14;19.00;99.90
42617;DHT22;28250;52.320;0.360;2022-08-19T05:03:44;18.90;99.90
42617;DHT22;28250;52.320;0.360;2022-08-19T05:06:12;18.90;99.90
42617;DHT22;28250;52.320;0.360;2022-08-19T05:08:39;18.80;99.90
42617;DHT22;28250;52.320;0.360;2022-08-19T05:11:12;18.80;99.90
42617;DHT22;28250;52.320;0.360;2022-08-19T05:13:41;18.80;99.90
42617;DHT22;28250;52.320;0.360;2022-08-19T05:16:10;18.80;99.90
42617;DHT22;28250;52.320;0.360;2022-08-19T05:18:37;18.80;99.90
42617;DHT22;28250;52.320;0.360;2022-08-19T05:21:22;18.80;99.90
42617;DHT22;28250;52.320;0.360;2022-08-19T05:24:07;18.90;99.90
42617;DHT22;28250;52.320;0.360;2022-08-19T05:26:36;18.90;99.90
42617;DHT22;28250;52.320;0.360;2022-08-19T05:29:04;18.80;99.90
42617;DHT22;28250;52.320;0.360;2022-08-19T05:31:31;18.80;99.90
42617;DHT22;28250;52.320;0.360;2022-08-19T05:33:58;18.70;99.90
42617;DHT22;28250;52.320;0.360;2022-08-19T05:36:26;18.70;99.90
42617;DHT22;28250;52.320;0.360;2022-08-19T05:38:53;18.70;99.90
42617;DHT22;28250;52.320;0.360;2022-08-19T05:41:20;18.60;99.90
42617;DHT22;28250;52.320;0.360;2022-08-19T05:43:55;18.60;99.90
42617;DHT22;28250;52.320;0.360;2022-08-19T05:46:23;18.60;99.90
42617;DHT22;28250;52.320;0.360;2022-08-19T05:48:50;18.60;99.90
42617;DHT22;28250;52.320;0.360;2022-08-19T05:51:16;18.60;99.90
42617;DHT22;28250;52.320;0.360;2022-08-19T05:53:43;18.70;99.90
42617;DHT22;28250;52.320;0.360;2022-08-19T05:56:12;18.70;99.90
42617;DHT22;28250;52.320;0.360;2022-08-19T05:58:40;18.70;99.90
42617;DHT22;28250;52.320;0.360;2022-08-19T06:01:11;19.00;99.90
42617;DHT22;28250;52.320;0.360;2022-08-19T06:03:39;19.10;99.90
42617;DHT22;28250;52.320;0.360;2022-08-19T06:06:07;19.20;99.90
42617;DHT22;28250;52.320;0.360;2022-08-19T06:08:34;19.10;99.90
42617;DHT22;28250;52.320;0.360;2022-08-19T06:13:52;19.20;99.90
42617;DHT22;28250;52.320;0.360;2022-08-19T06:16:19;19.10;99.90
42617;DHT22;28250;52.320;0.360;2022-08-19T06:18:51;19.10;99.90
42617;DHT22;28250;52.320;0.360;2022-08-19T06:21:19;19.00;99.90
42617;DHT22;28250;52.320;0.360;2022-08-19T06:23:48;19.00;99.90
42617;DHT22;28250;52.320;0.360;2022-08-19T06:26:17;19.00;99.90
42617;DHT22;28250;52.320;0.360;2022-08-19T06:28:45;18.70;99.90
42617;DHT22;28250;52.320;0.360;2022-08-19T06:31:13;18.30;99.90
42617;DHT22;28250;52.320;0.360;2022-08-19T06:33:42;18.10;99.90
42617;DHT22;28250;52.320;0.360;2022-08-19T06:36:18;17.90;99.90
42617;DHT22;28250;52.320;0.360;2022-08-19T06:38:46;17.80;99.90
42617;DHT22;28250;52.320;0.360;2022-08-19T06:41:12;17.70;99.90
42617;DHT22;28250;52.320;0.360;2022-08-19T06:43:39;17.70;99.90
42617;DHT22;28250;52.320;0.360;2022-08-19T06:46:11;17.70;99.90
42617;DHT22;28250;52.320;0.360;2022-08-19T06:48:38;17.70;99.90
42617;DHT22;28250;52.320;0.360;2022-08-19T06:51:05;17.80;99.90
42617;DHT22;28250;52.320;0.360;2022-08-19T06:53:32;17.80;99.90
42617;DHT22;28250;52.320;0.360;2022-08-19T06:55:59;18.00;99.90
42617;DHT22;28250;52.320;0.360;2022-08-19T06:58:29;18.00;99.90
42617;DHT22;28250;52.320;0.360;2022-08-19T07:00:59;18.00;99.90
42617;DHT22;28250;52.320;0.360;2022-08-19T07:03:29;18.00;99.90
42617;DHT22;28250;52.320;0.360;2022-08-19T07:05:57;18.10;99.90
42617;DHT22;28250;52.320;0.360;2022-08-19T07:08:28;18.30;99.90
42617;DHT22;28250;52.320;0.360;2022-08-19T07:10:54;18.40;99.90
42617;DHT22;28250;52.320;0.360;2022-08-19T07:13:21;18.50;99.90
42617;DHT22;28250;52.320;0.360;2022-08-19T07:15:48;18.40;99.90
42617;DHT22;28250;52.320;0.360;2022-08-19T07:18:17;18.60;99.90
42617;DHT22;28250;52.320;0.360;2022-08-19T07:20:44;19.50;99.90
42617;DHT22;28250;52.320;0.360;2022-08-19T07:23:11;20.00;99.90
42617;DHT22;28250;52.320;0.360;2022-08-19T07:25:38;20.30;99.90
42617;DHT22;28250;52.320;0.360;2022-08-19T07:28:04;20.00;99.90
42617;DHT22;28250;52.320;0.360;2022-08-19T07:30:36;19.80;99.90
42617;DHT22;28250;52.320;0.360;2022-08-19T07:33:03;20.00;99.90
42617;DHT22;28250;52.320;0.360;2022-08-19T07:35:30;20.00;99.90
42617;DHT22;28250;52.320;0.360;2022-08-19T07:37:58;20.30;99.90
42617;DHT22;28250;52.320;0.360;2022-08-19T07:40:27;20.20;99.90
42617;DHT22;28250;52.320;0.360;2022-08-19T07:42:54;20.30;99.90
42617;DHT22;28250;52.320;0.360;2022-08-19T07:45:20;20.30;99.90
42617;DHT22;28250;52.320;0.360;2022-08-19T07:47:47;20.30;99.90
42617;DHT22;28250;52.320;0.360;2022-08-19T07:50:13;20.60;99.90
42617;DHT22;28250;52.320;0.360;2022-08-19T07:52:40;20.50;99.90
42617;DHT22;28250;52.320;0.360;2022-08-19T07:55:07;20.30;99.90
42617;DHT22;28250;52.320;0.360;2022-08-19T07:57:35;20.20;99.90
42617;DHT22;28250;52.320;0.360;2022-08-19T08:00:02;20.40;99.90
42617;DHT22;28250;52.320;0.360;2022-08-19T08:02:37;20.50;99.90
42617;DHT22;28250;52.320;0.360;2022-08-19T08:05:05;20.70;99.90
42617;DHT22;28250;52.320;0.360;2022-08-19T08:07:49;20.50;99.90
42617;DHT22;28250;52.320;0.360;2022-08-19T08:10:34;20.30;99.90
42617;DHT22;28250;52.320;0.360;2022-08-19T08:13:01;20.30;99.90
42617;DHT22;28250;52.320;0.360;2022-08-19T08:15:28;20.40;99.90
42617;DHT22;28250;52.320;0.360;2022-08-19T08:17:54;20.10;99.90
42617;DHT22;28250;52.320;0.360;2022-08-19T08:20:21;20.00;99.90
42617;DHT22;28250;52.320;0.360;2022-08-19T08:22:47;20.00;99.90
42617;DHT22;28250;52.320;0.360;2022-08-19T08:25:32;20.00;99.90
42617;DHT22;28250;52.320;0.360;2022-08-19T08:28:01;19.80;99.90
42617;DHT22;28250;52.320;0.360;2022-08-19T08:30:29;19.90;99.90
42617;DHT22;28250;52.320;0.360;2022-08-19T08:32:58;20.10;99.90
42617;DHT22;28250;52.320;0.360;2022-08-19T08:35:24;20.10;99.90
42617;DHT22;28250;52.320;0.360;2022-08-19T08:37:51;20.20;99.90
42617;DHT22;28250;52.320;0.360;2022-08-19T08:45:59;19.90;99.90
42617;DHT22;28250;52.320;0.360;2022-08-19T08:50:57;19.70;99.90
42617;DHT22;28250;52.320;0.360;2022-08-19T08:53:24;19.90;99.90
42617;DHT22;28250;52.320;0.360;2022-08-19T08:55:51;20.20;99.90
42617;DHT22;28250;52.320;0.360;2022-08-19T09:00:50;20.10;99.90
42617;DHT22;28250;52.320;0.360;2022-08-19T09:05:50;20.30;99.90
42617;DHT22;28250;52.320;0.360;2022-08-19T09:10:56;20.60;99.90
42617;DHT22;28250;52.320;0.360;2022-08-19T09:13:31;20.70;99.90
42617;DHT22;28250;52.320;0.360;2022-08-19T09:16:08;20.70;99.90
42617;DHT22;28250;52.320;0.360;2022-08-19T09:18:47;20.80;99.90
42617;DHT22;28250;52.320;0.360;2022-08-19T09:21:19;20.70;99.90
42617;DHT22;28250;52.320;0.360;2022-08-19T09:23:48;21.00;99.90
42617;DHT22;28250;52.320;0.360;2022-08-19T09:26:21;21.10;99.90
42617;DHT22;28250;52.320;0.360;2022-08-19T09:28:49;21.10;99.90
42617;DHT22;28250;52.320;0.360;2022-08-19T09:31:23;21.00;99.90
42617;DHT22;28250;52.320;0.360;2022-08-19T09:33:55;21.20;99.90
42617;DHT22;28250;52.320;0.360;2022-08-19T09:36:25;21.20;99.90
42617;DHT22;28250;52.320;0.360;2022-08-19T09:38:54;21.40;99.90
42617;DHT22;28250;52.320;0.360;2022-08-19T09:41:22;21.50;99.90
42617;DHT22;28250;52.320;0.360;2022-08-19T09:43:50;21.90;99.90
42617;DHT22;28250;52.320;0.360;2022-08-19T09:46:18;21.70;99.90
42617;DHT22;28250;52.320;0.360;2022-08-19T09:48:47;21.70;99.90
42617;DHT22;28250;52.320;0.360;2022-08-19T09:51:19;21.80;99.90
42617;DHT22;28250;52.320;0.360;2022-08-19T09:53:47;22.10;99.90
42617;DHT22;28250;52.320;0.360;2022-08-19T09:56:17;21.70;99.90
42617;DHT22;28250;52.320;0.360;2022-08-19T09:58:44;21.70;99.90
42617;DHT22;28250;52.320;0.360;2022-08-19T10:01:19;21.70;99.90
42617;DHT22;28250;52.320;0.360;2022-08-19T10:03:48;21.40;99.90
42617;DHT22;28250;52.320;0.360;2022-08-19T10:06:16;21.70;99.90
42617;DHT22;28250;52.320;0.360;2022-08-19T10:08:43;22.20;99.90
42617;DHT22;28250;52.320;0.360;2022-08-19T10:11:10;22.40;99.90
42617;DHT22;28250;52.320;0.360;2022-08-19T10:13:37;22.70;99.90
42617;DHT22;28250;52.320;0.360;2022-08-19T10:16:06;22.70;99.90
42617;DHT22;28250;52.320;0.360;2022-08-19T10:18:35;23.00;99.90
42617;DHT22;28250;52.320;0.360;2022-08-19T10:21:09;23.00;99.90
42617;DHT22;28250;52.320;0.360;2022-08-19T10:23:38;23.10;99.90
42617;DHT22;28250;52.320;0.360;2022-08-19T10:26:06;22.50;99.90
42617;DHT22;28250;52.320;0.360;2022-08-19T10:28:34;22.80;99.90
42617;DHT22;28250;52.320;0.360;2022-08-19T10:31:05;22.80;99.90
42617;DHT22;28250;52.320;0.360;2022-08-19T10:33:34;23.10;99.90
42617;DHT22;28250;52.320;0.360;2022-08-19T10:36:04;23.30;99.90
42617;DHT22;28250;52.320;0.360;2022-08-19T10:38:41;23.10;99.90
42617;DHT22;28250;52.320;0.360;2022-08-19T10:41:14;23.50;99.90
42617;DHT22;28250;52.320;0.360;2022-08-19T10:43:43;23.60;99.90
42617;DHT22;28250;52.320;0.360;2022-08-19T10:46:12;22.80;99.90
42617;DHT22;28250;52.320;0.360;2022-08-19T10:48:40;23.40;99.90
42617;DHT22;28250;52.320;0.360;2022-08-19T10:51:07;23.60;99.90
42617;DHT22;28250;52.320;0.360;2022-08-19T10:53:53;23.70;99.90
42617;DHT22;28250;52.320;0.360;2022-08-19T10:56:19;24.30;99.90
42617;DHT22;28250;52.320;0.360;2022-08-19T10:59:05;24.60;99.90
42617;DHT22;28250;52.320;0.360;2022-08-19T11:01:31;24.40;99.90
42617;DHT22;28250;52.320;0.360;2022-08-19T11:04:00;24.60;99.90
42617;DHT22;28250;52.320;0.360;2022-08-19T11:06:27;24.50;99.90
42617;DHT22;28250;52.320;0.360;2022-08-19T11:08:55;24.60;99.90
42617;DHT22;28250;52.320;0.360;2022-08-19T11:11:21;24.80;99.90
42617;DHT22;28250;52.320;0.360;2022-08-19T11:13:48;24.40;99.90
42617;DHT22;28250;52.320;0.360;2022-08-19T11:16:16;24.60;99.90
42617;DHT22;28250;52.320;0.360;2022-08-19T11:18:48;24.40;99.90
42617;DHT22;28250;52.320;0.360;2022-08-19T11:21:20;24.40;99.90
42617;DHT22;28250;52.320;0.360;2022-08-19T11:23:49;24.20;99.90
42617;DHT22;28250;52.320;0.360;2022-08-19T11:26:19;25.10;99.90
42617;DHT22;28250;52.320;0.360;2022-08-19T11:28:48;25.30;99.90
42617;DHT22;28250;52.320;0.360;2022-08-19T11:31:18;24.90;99.90
42617;DHT22;28250;52.320;0.360;2022-08-19T11:33:45;25.50;99.90
42617;DHT22;28250;52.320;0.360;2022-08-19T11:36:12;25.50;99.90
42617;DHT22;28250;52.320;0.360;2022-08-19T11:38:39;25.90;99.90
42617;DHT22;28250;52.320;0.360;2022-08-19T11:41:06;26.20;99.90
42617;DHT22;28250;52.320;0.360;2022-08-19T11:43:33;25.30;99.90
42617;DHT22;28250;52.320;0.360;2022-08-19T11:46:03;25.70;99.90
42617;DHT22;28250;52.320;0.360;2022-08-19T11:48:33;26.20;99.90
42617;DHT22;28250;52.320;0.360;2022-08-19T11:51:03;24.80;99.90
42617;DHT22;28250;52.320;0.360;2022-08-19T11:53:32;25.20;99.90
42617;DHT22;28250;52.320;0.360;2022-08-19T11:55:59;25.00;99.90
42617;DHT22;28250;52.320;0.360;2022-08-19T11:58:26;25.30;99.90
42617;DHT22;28250;52.320;0.360;2022-08-19T12:00:53;25.30;99.90
42617;DHT22;28250;52.320;0.360;2022-08-19T12:03:19;25.20;99.90
42617;DHT22;28250;52.320;0.360;2022-08-19T12:05:45;25.30;99.90
42617;DHT22;28250;52.320;0.360;2022-08-19T12:08:12;25.20;99.90
42617;DHT22;28250;52.320;0.360;2022-08-19T12:10:39;25.50;99.90
42617;DHT22;28250;52.320;0.360;2022-08-19T12:13:08;24.80;99.90
42617;DHT22;28250;52.320;0.360;2022-08-19T12:15:36;24.60;99.90
42617;DHT22;28250;52.320;0.360;2022-08-19T12:18:04;25.20;99.90
42617;DHT22;28250;52.320;0.360;2022-08-19T12:20:30;25.00;99.90
42617;DHT22;28250;52.320;0.360;2022-08-19T12:22:57;25.10;99.90
42617;DHT22;28250;52.320;0.360;2022-08-19T12:25:23;25.20;99.90
42617;DHT22;28250;52.320;0.360;2022-08-19T12:27:49;25.50;99.90
42617;DHT22;28250;52.320;0.360;2022-08-19T12:30:16;25.70;99.80
42617;DHT22;28250;52.320;0.360;2022-08-19T12:32:42;25.30;99.90
42617;DHT22;28250;52.320;0.360;2022-08-19T12:35:08;24.90;98.70
42617;DHT22;28250;52.320;0.360;2022-08-19T12:37:36;24.80;99.20
42617;DHT22;28250;52.320;0.360;2022-08-19T12:40:03;25.10;99.50
42617;DHT22;28250;52.320;0.360;2022-08-19T12:42:30;24.80;99.20
42617;DHT22;28250;52.320;0.360;2022-08-19T12:44:56;25.30;99.70
42617;DHT22;28250;52.320;0.360;2022-08-19T12:47:23;25.70;98.10
42617;DHT22;28250;52.320;0.360;2022-08-19T12:49:49;25.80;98.90
42617;DHT22;28250;52.320;0.360;2022-08-19T12:52:16;26.10;99.90
42617;DHT22;28250;52.320;0.360;2022-08-19T12:54:46;26.40;99.90
42617;DHT22;28250;52.320;0.360;2022-08-19T12:57:13;26.00;99.50
42617;DHT22;28250;52.320;0.360;2022-08-19T12:59:41;26.20;99.90
42617;DHT22;28250;52.320;0.360;2022-08-19T13:02:07;26.70;99.60
42617;DHT22;28250;52.320;0.360;2022-08-19T13:04:34;26.50;97.20
42617;DHT22;28250;52.320;0.360;2022-08-19T13:07:02;25.90;97.70
42617;DHT22;28250;52.320;0.360;2022-08-19T13:09:28;25.30;97.50
42617;DHT22;28250;52.320;0.360;2022-08-19T13:11:55;26.30;98.80
42617;DHT22;28250;52.320;0.360;2022-08-19T13:14:22;27.20;98.80
42617;DHT22;28250;52.320;0.360;2022-08-19T13:16:48;26.70;95.70
42617;DHT22;28250;52.320;0.360;2022-08-19T13:19:15;26.10;95.90
42617;DHT22;28250;52.320;0.360;2022-08-19T13:21:41;25.70;94.70
42617;DHT22;28250;52.320;0.360;2022-08-19T13:24:07;25.50;96.70
42617;DHT22;28250;52.320;0.360;2022-08-19T13:26:34;25.90;94.60
42617;DHT22;28250;52.320;0.360;2022-08-19T13:29:00;26.00;93.90
42617;DHT22;28250;52.320;0.360;2022-08-19T13:31:45;26.10;94.10
42617;DHT22;28250;52.320;0.360;2022-08-19T13:34:32;26.50;98.30
42617;DHT22;28250;52.320;0.360;2022-08-19T13:37:01;26.50;93.40
42617;DHT22;28250;52.320;0.360;2022-08-19T13:39:30;26.80;92.20
42617;DHT22;28250;52.320;0.360;2022-08-19T13:41:58;26.00;93.60
42617;DHT22;28250;52.320;0.360;2022-08-19T13:44:26;26.30;93.40
42617;DHT22;28250;52.320;0.360;2022-08-19T13:46:59;26.40;91.40
42617;DHT22;28250;52.320;0.360;2022-08-19T13:49:31;26.20;91.30
42617;DHT22;28250;52.320;0.360;2022-08-19T13:51:57;26.50;91.60
42617;DHT22;28250;52.320;0.360;2022-08-19T13:54:23;26.10;91.50
42617;DHT22;28250;52.320;0.360;2022-08-19T13:56:50;26.10;93.20
42617;DHT22;28250;52.320;0.360;2022-08-19T13:59:16;26.00;93.30
42617;DHT22;28250;52.320;0.360;2022-08-19T14:01:43;26.10;91.20
42617;DHT22;28250;52.320;0.360;2022-08-19T14:04:09;25.90;91.40
42617;DHT22;28250;52.320;0.360;2022-08-19T14:06:36;26.50;91.50
42617;DHT22;28250;52.320;0.360;2022-08-19T14:09:02;25.60;91.50
42617;DHT22;28250;52.320;0.360;2022-08-19T14:11:30;25.70;91.70
42617;DHT22;28250;52.320;0.360;2022-08-19T14:13:56;26.20;92.50
42617;DHT22;28250;52.320;0.360;2022-08-19T14:16:23;25.80;91.70
42617;DHT22;28250;52.320;0.360;2022-08-19T14:18:50;26.00;94.40
42617;DHT22;28250;52.320;0.360;2022-08-19T14:21:19;26.40;91.70
42617;DHT22;28250;52.320;0.360;2022-08-19T14:23:49;25.40;91.20
42617;DHT22;28250;52.320;0.360;2022-08-19T14:26:16;25.50;91.20
42617;DHT22;28250;52.320;0.360;2022-08-19T14:28:43;26.00;92.50
42617;DHT22;28250;52.320;0.360;2022-08-19T14:31:11;25.80;91.60
42617;DHT22;28250;52.320;0.360;2022-08-19T14:33:42;25.50;91.70
42617;DHT22;28250;52.320;0.360;2022-08-19T14:36:08;25.50;93.10
42617;DHT22;28250;52.320;0.360;2022-08-19T14:38:35;25.60;92.00
42617;DHT22;28250;52.320;0.360;2022-08-19T14:43:48;25.50;92.80
42617;DHT22;28250;52.320;0.360;2022-08-19T14:46:17;25.20;91.90
42617;DHT22;28250;52.320;0.360;2022-08-19T14:48:46;24.80;92.00
42617;DHT22;28250;52.320;0.360;2022-08-19T14:51:13;25.00;92.30
42617;DHT22;28250;52.320;0.360;2022-08-19T14:53:40;24.50;91.70
42617;DHT22;28250;52.320;0.360;2022-08-19T14:56:10;24.50;91.90
42617;DHT22;28250;52.320;0.360;2022-08-19T14:58:38;25.00;92.10
42617;DHT22;28250;52.320;0.360;2022-08-19T15:01:06;24.80;91.90
42617;DHT22;28250;52.320;0.360;2022-08-19T15:03:33;24.80;92.60
42617;DHT22;28250;52.320;0.360;2022-08-19T15:06:00;24.70;92.30
42617;DHT22;28250;52.320;0.360;2022-08-19T15:08:28;25.50;93.00
42617;DHT22;28250;52.320;0.360;2022-08-19T15:10:57;25.70;93.70
42617;DHT22;28250;52.320;0.360;2022-08-19T15:13:24;25.20;91.60
42617;DHT22;28250;52.320;0.360;2022-08-19T15:15:53;24.60;92.60
42617;DHT22;28250;52.320;0.360;2022-08-19T15:18:19;25.00;92.40
42617;DHT22;28250;52.320;0.360;2022-08-19T15:20:47;25.50;92.20
42617;DHT22;28250;52.320;0.360;2022-08-19T15:23:14;25.30;92.50
42617;DHT22;28250;52.320;0.360;2022-08-19T15:25:42;25.20;93.90
42617;DHT22;28250;52.320;0.360;2022-08-19T15:28:09;25.50;93.20
42617;DHT22;28250;52.320;0.360;2022-08-19T15:30:37;25.20;92.60
42617;DHT22;28250;52.320;0.360;2022-08-19T15:33:04;24.90;92.90
42617;DHT22;28250;52.320;0.360;2022-08-19T15:35:30;24.40;93.40
42617;DHT22;28250;52.320;0.360;2022-08-19T15:37:57;23.80;93.50
42617;DHT22;28250;52.320;0.360;2022-08-19T15:40:24;23.90;94.10
42617;DHT22;28250;52.320;0.360;2022-08-19T15:42:52;24.50;93.20
42617;DHT22;28250;52.320;0.360;2022-08-19T15:45:19;24.70;93.30
42617;DHT22;28250;52.320;0.360;2022-08-19T15:47:46;24.80;93.10
42617;DHT22;28250;52.320;0.360;2022-08-19T15:50:16;24.60;92.70
42617;DHT22;28250;52.320;0.360;2022-08-19T15:52:50;24.40;92.80
42617;DHT22;28250;52.320;0.360;2022-08-19T15:55:21;24.70;93.20
42617;DHT22;28250;52.320;0.360;2022-08-19T15:57:49;24.60;93.20
42617;DHT22;28250;52.320;0.360;2022-08-19T16:00:34;24.40;93.70